createdAt,value
2018-06-03T00:02:22.077Z,97656.28
2018-06-03T00:04:50.880Z,97656.41
2018-06-03T00:07:19.764Z,97655.47
2018-06-03T00:09:48.690Z,97661.86
2018-06-03T00:12:17.227Z,97661.56
2018-06-03T00:14:45.709Z,97657.45
2018-06-03T00:17:14.244Z,97662.20
2018-06-03T00:19:43.077Z,97663.52
2018-06-03T00:22:37.353Z,97665.82
2018-06-03T00:25:06.956Z,97656.72
2018-06-03T00:27:35.784Z,97652.31
2018-06-03T00:30:04.594Z,97661.70
2018-06-03T00:35:58.158Z,97657.55
2018-06-03T00:38:31.853Z,97656.23
2018-06-03T00:41:07.300Z,97647.45
2018-06-03T00:43:44.486Z,97648.48
2018-06-03T00:46:17.132Z,97643.04
2018-06-03T00:48:54.057Z,97644.67
2018-06-03T00:51:31.036Z,97640.78
2018-06-03T00:54:10.827Z,97639.66
2018-06-03T00:56:55.942Z,97636.94
2018-06-03T00:59:28.881Z,97643.01
2018-06-03T01:02:02.466Z,97633.77
2018-06-03T01:04:36.545Z,97637.79
2018-06-03T01:07:14.754Z,97637.39
2018-06-03T01:09:48.439Z,97631.28
2018-06-03T01:12:21.965Z,97633.38
2018-06-03T01:14:59.763Z,97627.98
2018-06-03T01:17:34.579Z,97623.69
2018-06-03T01:20:15.672Z,97624.20
2018-06-03T01:22:51.233Z,97614.22
2018-06-03T01:28:06.202Z,97616.45
2018-06-03T01:30:43.959Z,97618.25
2018-06-03T01:33:15.427Z,97610.02
2018-06-03T01:35:52.038Z,97614.05
2018-06-03T01:38:27.672Z,97610.77
2018-06-03T01:41:03.145Z,97614.48
2018-06-03T01:43:43.471Z,97610.71
2018-06-03T01:46:18.901Z,97600.42
2018-06-03T01:48:53.538Z,97604.28
2018-06-03T01:51:27.916Z,97603.59
2018-06-03T01:54:00.385Z,97602.24
2018-06-03T01:56:36.717Z,97600.70
2018-06-03T01:59:09.148Z,97599.71
2018-06-03T02:01:44.253Z,97594.42
2018-06-03T02:04:21.372Z,97595.57
2018-06-03T02:06:58.518Z,97596.42
2018-06-03T02:09:35.197Z,97593.47
2018-06-03T02:12:10.292Z,97590.75
2018-06-03T02:14:49.448Z,97594.95
2018-06-03T02:17:24.122Z,97598.77
2018-06-03T02:19:59.721Z,97594.05
2018-06-03T02:22:34.608Z,97597.25
2018-06-03T02:25:08.899Z,97597.06
2018-06-03T02:27:46.107Z,97598.45
2018-06-03T02:30:24.189Z,97596.36
2018-06-03T02:32:56.636Z,97593.37
2018-06-03T02:35:35.997Z,97592.27
2018-06-03T02:38:16.405Z,97593.26
2018-06-03T02:40:53.455Z,97595.00
2018-06-03T02:43:28.291Z,97589.59
2018-06-03T02:48:53.902Z,97584.30
2018-06-03T02:51:30.736Z,97590.97
2018-06-03T02:54:07.760Z,97588.52
2018-06-03T02:56:45.408Z,97593.81
2018-06-03T02:59:21.627Z,97591.06
2018-06-03T03:01:55.467Z,97592.52
2018-06-03T03:04:33.456Z,97593.98
2018-06-03T03:07:07.540Z,97598.75
2018-06-03T03:09:42.062Z,97594.53
2018-06-03T03:12:19.032Z,97587.16
2018-06-03T03:14:55.938Z,97599.95
2018-06-03T03:17:31.146Z,97593.11
2018-06-03T03:20:07.292Z,97591.53
2018-06-03T03:22:36.314Z,97593.36
2018-06-03T03:25:05.102Z,97594.22
2018-06-03T03:27:33.841Z,97594.59
2018-06-03T03:30:02.656Z,97594.70
2018-06-03T03:32:31.465Z,97589.79
2018-06-03T03:35:00.228Z,97590.39
2018-06-03T03:37:29.032Z,97583.62
2018-06-03T03:39:59.112Z,97582.64
2018-06-03T03:42:27.884Z,97588.77
2018-06-03T03:44:57.486Z,97586.91
2018-06-03T03:47:26.282Z,97582.78
2018-06-03T03:49:56.039Z,97589.98
2018-06-03T03:52:25.450Z,97593.07
2018-06-03T03:54:54.613Z,97598.66
2018-06-03T03:57:24.220Z,97597.28
2018-06-03T03:59:52.985Z,97595.41
2018-06-03T04:02:21.985Z,97597.20
2018-06-03T04:04:50.760Z,97594.84
2018-06-03T04:07:21.446Z,97601.22
2018-06-03T04:09:50.899Z,97600.69
2018-06-03T04:12:19.709Z,97602.31
2018-06-03T04:14:48.541Z,97606.16
2018-06-03T04:17:17.368Z,97610.20
2018-06-03T04:19:46.166Z,97617.45
2018-06-03T04:22:52.748Z,97621.98
2018-06-03T04:25:22.381Z,97625.50
2018-06-03T04:27:52.261Z,97627.76
2018-06-03T04:30:22.420Z,97627.83
2018-06-03T04:32:59.353Z,97633.08
2018-06-03T04:35:29.213Z,97640.83
2018-06-03T04:37:58.952Z,97635.11
2018-06-03T04:40:28.695Z,97646.33
2018-06-03T04:42:58.467Z,97650.23
2018-06-03T04:45:28.304Z,97651.45
2018-06-03T04:48:00.418Z,97643.30
2018-06-03T04:50:30.594Z,97648.97
2018-06-03T04:53:00.664Z,97644.06
2018-06-03T04:55:30.418Z,97644.74
2018-06-03T04:58:00.385Z,97647.63
2018-06-03T05:00:30.267Z,97644.88
2018-06-03T05:02:59.978Z,97648.19
2018-06-03T05:05:29.841Z,97644.89
2018-06-03T05:08:01.910Z,97652.84
2018-06-03T05:10:32.006Z,97646.32
2018-06-03T05:13:01.779Z,97655.64
2018-06-03T05:15:31.732Z,97651.98
2018-06-03T05:18:01.631Z,97658.63
2018-06-03T05:20:31.425Z,97663.30
2018-06-03T05:23:01.321Z,97659.14
2018-06-03T05:25:31.290Z,97663.06
2018-06-03T05:28:01.239Z,97662.20
2018-06-03T05:30:31.201Z,97658.48
2018-06-03T05:33:01.446Z,97659.64
2018-06-03T05:35:31.205Z,97663.00
2018-06-03T05:38:01.017Z,97662.87
2018-06-03T05:40:30.968Z,97662.14
2018-06-03T05:43:00.755Z,97665.17
2018-06-03T05:45:30.624Z,97665.08
2018-06-03T05:48:00.484Z,97663.17
2018-06-03T05:50:30.693Z,97668.47
2018-06-03T05:53:01.057Z,97664.59
2018-06-03T05:55:31.988Z,97662.10
2018-06-03T05:58:01.808Z,97670.52
2018-06-03T06:00:31.635Z,97671.16
2018-06-03T06:03:02.318Z,97671.58
2018-06-03T06:05:32.198Z,97676.17
2018-06-03T06:08:03.623Z,97673.89
2018-06-03T06:10:33.637Z,97673.41
2018-06-03T06:13:03.662Z,97675.28
2018-06-03T06:15:34.547Z,97678.98
2018-06-03T06:18:04.497Z,97669.42
2018-06-03T06:20:34.515Z,97671.88
2018-06-03T06:23:04.593Z,97668.13
2018-06-03T06:25:34.719Z,97669.36
2018-06-03T06:28:04.737Z,97666.34
2018-06-03T06:30:34.432Z,97671.83
2018-06-03T06:33:04.397Z,97669.82
2018-06-03T06:35:34.318Z,97669.80
2018-06-03T06:38:04.224Z,97670.90
2018-06-03T06:40:34.150Z,97667.95
2018-06-03T06:43:04.236Z,97661.30
2018-06-03T06:45:34.672Z,97660.50
2018-06-03T06:48:04.504Z,97661.81
2018-06-03T06:50:36.095Z,97663.52
2018-06-03T06:53:06.397Z,97663.06
2018-06-03T06:55:36.294Z,97670.75
2018-06-03T06:58:06.395Z,97667.90
2018-06-03T07:00:36.317Z,97663.63
2018-06-03T07:03:06.142Z,97664.46
2018-06-03T07:05:36.000Z,97666.09
2018-06-03T07:08:05.714Z,97665.80
2018-06-03T07:10:35.761Z,97663.13
2018-06-03T07:13:10.055Z,97662.02
2018-06-03T07:15:41.114Z,97660.66
2018-06-03T07:18:10.901Z,97667.66
2018-06-03T07:20:40.579Z,97668.73
2018-06-03T07:23:10.568Z,97664.44
2018-06-03T07:25:42.730Z,97666.32
2018-06-03T07:28:13.420Z,97664.70
2018-06-03T07:30:43.712Z,97670.38
2018-06-03T07:33:14.777Z,97661.27
2018-06-03T07:35:44.894Z,97656.39
2018-06-03T07:38:14.768Z,97659.38
2018-06-03T07:40:45.244Z,97658.53
2018-06-03T07:43:15.069Z,97659.89
2018-06-03T07:45:45.050Z,97651.31
2018-06-03T07:48:14.961Z,97653.71
2018-06-03T07:50:45.553Z,97650.77
2018-06-03T07:53:16.288Z,97646.73
2018-06-03T07:55:46.146Z,97651.30
2018-06-03T07:58:16.501Z,97638.97
2018-06-03T08:00:46.489Z,97641.62
2018-06-03T08:03:16.305Z,97643.52
2018-06-03T08:05:46.066Z,97644.26
2018-06-03T08:08:17.994Z,97641.23
2018-06-03T08:10:49.481Z,97637.69
2018-06-03T08:13:19.415Z,97631.74
2018-06-03T08:15:51.230Z,97635.63
2018-06-03T08:18:21.448Z,97637.13
2018-06-03T08:23:27.932Z,97633.09
2018-06-03T08:25:57.929Z,97634.92
2018-06-03T08:28:27.765Z,97633.09
2018-06-03T08:30:57.538Z,97637.30
2018-06-03T08:33:27.452Z,97637.73
2018-06-03T08:35:58.188Z,97639.00
2018-06-03T08:38:28.790Z,97644.39
2018-06-03T08:40:58.542Z,97638.13
2018-06-03T08:43:28.244Z,97640.92
2018-06-03T08:45:58.032Z,97645.84
2018-06-03T08:48:28.250Z,97644.43
2018-06-03T08:50:58.036Z,97638.85
2018-06-03T08:53:28.098Z,97645.43
2018-06-03T08:55:57.953Z,97647.34
2018-06-03T08:58:29.325Z,97648.55
2018-06-03T09:00:59.283Z,97640.05
2018-06-03T09:03:28.688Z,97644.69
2018-06-03T09:05:58.496Z,97640.23
2018-06-03T09:08:29.596Z,97643.83
2018-06-03T09:10:59.191Z,97637.63
2018-06-03T09:13:28.988Z,97640.01
2018-06-03T09:15:58.886Z,97639.25
2018-06-03T09:18:29.560Z,97643.83
2018-06-03T09:20:59.741Z,97634.20
2018-06-03T09:23:29.851Z,97633.37
2018-06-03T09:25:59.406Z,97627.69
2018-06-03T09:28:29.237Z,97623.47
2018-06-03T09:31:04.020Z,97620.75
2018-06-03T09:33:33.786Z,97615.66
2018-06-03T09:36:03.855Z,97612.56
2018-06-03T09:38:34.018Z,97609.89
2018-06-03T09:41:04.301Z,97605.09
2018-06-03T09:46:08.970Z,97597.57
2018-06-03T09:48:38.866Z,97594.66
2018-06-03T09:51:08.642Z,97592.91
2018-06-03T09:53:38.176Z,97583.86
2018-06-03T09:56:08.296Z,97576.47
2018-06-03T09:58:38.139Z,97576.00
2018-06-03T10:01:08.324Z,97566.62
2018-06-03T10:03:38.260Z,97578.48
2018-06-03T10:06:08.304Z,97574.33
2018-06-03T10:08:44.487Z,97566.16
2018-06-03T10:11:14.440Z,97565.41
2018-06-03T10:13:44.370Z,97564.58
2018-06-03T10:16:14.550Z,97566.11
2018-06-03T10:18:45.781Z,97559.84
2018-06-03T10:21:15.789Z,97556.98
2018-06-03T10:23:45.435Z,97555.88
2018-06-03T10:26:16.222Z,97551.11
2018-06-03T10:28:58.924Z,97555.09
2018-06-03T10:31:29.917Z,97551.64
2018-06-03T10:34:01.070Z,97548.44
2018-06-03T10:36:31.205Z,97547.52
2018-06-03T10:39:01.012Z,97536.09
2018-06-03T10:41:31.041Z,97535.65
2018-06-03T10:44:00.963Z,97536.07
2018-06-03T10:46:31.807Z,97534.02
2018-06-03T10:49:02.122Z,97531.64
2018-06-03T10:51:31.917Z,97533.72
2018-06-03T10:54:01.681Z,97531.69
2018-06-03T10:56:31.609Z,97526.24
2018-06-03T10:59:01.481Z,97521.27
2018-06-03T11:01:31.293Z,97521.30
2018-06-03T11:04:01.159Z,97517.23
2018-06-03T11:06:31.186Z,97511.46
2018-06-03T11:09:01.170Z,97507.67
2018-06-03T11:11:31.074Z,97503.72
2018-06-03T11:14:01.432Z,97504.20
2018-06-03T11:16:31.880Z,97499.79
2018-06-03T11:19:01.874Z,97491.64
2018-06-03T11:21:32.090Z,97484.99
2018-06-03T11:24:01.957Z,97479.69
2018-06-03T11:26:33.031Z,97480.00
2018-06-03T11:29:03.180Z,97475.91
2018-06-03T11:31:32.931Z,97472.61
2018-06-03T11:34:02.551Z,97468.19
2018-06-03T11:36:32.443Z,97464.55
2018-06-03T11:39:02.275Z,97461.94
2018-06-03T11:41:32.420Z,97450.41
2018-06-03T11:44:02.895Z,97451.41
2018-06-03T11:46:32.548Z,97463.30
2018-06-03T11:49:02.382Z,97451.92
2018-06-03T11:51:32.488Z,97453.86
2018-06-03T11:54:02.475Z,97459.25
2018-06-03T11:56:43.185Z,97458.03
2018-06-03T11:59:22.742Z,97456.56
2018-06-03T12:01:52.900Z,97448.78
2018-06-03T12:04:22.674Z,97451.72
2018-06-03T12:06:53.145Z,97452.42
2018-06-03T12:09:23.322Z,97458.95
2018-06-03T12:11:54.173Z,97449.00
2018-06-03T12:14:25.890Z,97445.70
2018-06-03T12:16:56.065Z,97443.44
2018-06-03T12:19:27.233Z,97433.13
2018-06-03T12:22:00.329Z,97434.42
2018-06-03T12:24:30.105Z,97427.05
2018-06-03T12:26:59.920Z,97425.73
2018-06-03T12:29:29.736Z,97429.19
2018-06-03T12:32:00.278Z,97415.73
2018-06-03T12:34:29.892Z,97410.72
2018-06-03T12:36:59.850Z,97401.86
2018-06-03T12:39:29.638Z,97409.66
2018-06-03T12:41:59.397Z,97399.93
2018-06-03T12:44:29.386Z,97394.48
2018-06-03T12:46:59.354Z,97392.89
2018-06-03T12:49:29.180Z,97376.48
2018-06-03T12:51:59.177Z,97382.95
2018-06-03T12:54:28.659Z,97375.97
2018-06-03T12:56:58.483Z,97367.04
2018-06-03T12:59:28.248Z,97367.54
2018-06-03T13:01:58.075Z,97359.88
2018-06-03T13:04:27.879Z,97353.95
2018-06-03T13:06:58.604Z,97356.53
2018-06-03T13:09:28.800Z,97353.96
2018-06-03T13:11:58.534Z,97352.59
2018-06-03T13:14:28.296Z,97342.89
2018-06-03T13:16:58.365Z,97347.17
2018-06-03T13:19:28.167Z,97349.68
2018-06-03T13:21:57.860Z,97340.69
2018-06-03T13:24:27.816Z,97345.91
2018-06-03T13:26:57.602Z,97352.75
2018-06-03T13:29:27.692Z,97361.13
2018-06-03T13:31:57.694Z,97370.53
2018-06-03T13:34:27.542Z,97373.27
2018-06-03T13:36:57.485Z,97389.33
2018-06-03T13:39:27.362Z,97379.76
2018-06-03T13:41:57.106Z,97379.23
2018-06-03T13:44:27.150Z,97380.28
2018-06-03T13:46:57.073Z,97378.61
2018-06-03T13:49:27.271Z,97381.83
2018-06-03T13:51:57.099Z,97378.39
2018-06-03T13:54:27.064Z,97392.61
2018-06-03T13:56:57.491Z,97391.09
2018-06-03T13:59:27.436Z,97393.58
2018-06-03T14:01:57.803Z,97391.63
2018-06-03T14:04:27.755Z,97389.73
2018-06-03T14:06:57.837Z,97388.49
2018-06-03T14:09:27.701Z,97386.84
2018-06-03T14:11:57.688Z,97388.16
2018-06-03T14:14:27.756Z,97393.34
2018-06-03T14:16:57.807Z,97380.89
2018-06-03T14:19:28.845Z,97378.58
2018-06-03T14:21:58.957Z,97380.72
2018-06-03T14:24:31.796Z,97378.53
2018-06-03T14:27:01.908Z,97380.44
2018-06-03T14:29:31.696Z,97383.96
2018-06-03T14:32:01.461Z,97383.55
2018-06-03T14:34:31.313Z,97380.06
2018-06-03T14:37:01.165Z,97376.83
2018-06-03T14:39:32.183Z,97369.59
2018-06-03T14:42:02.816Z,97357.58
2018-06-03T14:44:32.688Z,97345.12
2018-06-03T14:47:02.702Z,97338.81
2018-06-03T14:49:32.734Z,97334.06
2018-06-03T14:52:02.570Z,97331.53
2018-06-03T14:54:32.485Z,97330.59
2018-06-03T14:57:03.134Z,97327.29
2018-06-03T14:59:32.810Z,97331.39
2018-06-03T15:02:02.788Z,97334.45
2018-06-03T15:04:36.410Z,97338.33
2018-06-03T15:07:06.261Z,97335.10
2018-06-03T15:09:36.121Z,97331.41
2018-06-03T15:12:06.173Z,97334.34
2018-06-03T15:14:35.801Z,97335.97
2018-06-03T15:17:05.513Z,97335.32
2018-06-03T15:19:35.449Z,97328.88
2018-06-03T15:22:05.302Z,97331.88
2018-06-03T15:24:35.194Z,97330.11
2018-06-03T15:27:05.241Z,97331.83
2018-06-03T15:29:35.083Z,97328.01
2018-06-03T15:32:05.110Z,97331.31
2018-06-03T15:34:34.957Z,97325.40
2018-06-03T15:37:04.922Z,97324.94
2018-06-03T15:39:34.935Z,97332.28
2018-06-03T15:42:04.813Z,97331.17
2018-06-03T15:44:34.802Z,97329.98
2018-06-03T15:47:04.720Z,97337.46
2018-06-03T15:49:34.996Z,97331.89
2018-06-03T15:52:04.984Z,97337.09
2018-06-03T15:54:34.828Z,97345.87
2018-06-03T15:57:04.541Z,97344.41
2018-06-03T15:59:34.448Z,97341.89
2018-06-03T16:02:04.393Z,97341.48
2018-06-03T16:04:34.319Z,97332.86
2018-06-03T16:07:04.183Z,97333.24
2018-06-03T16:09:33.929Z,97331.00
2018-06-03T16:12:03.531Z,97334.09
2018-06-03T16:14:33.358Z,97323.06
2018-06-03T16:17:04.566Z,97312.52
2018-06-03T16:19:34.414Z,97311.80
2018-06-03T16:22:04.708Z,97314.33
2018-06-03T16:24:34.732Z,97310.73
2018-06-03T16:27:04.515Z,97299.73
2018-06-03T16:29:34.324Z,97302.47
2018-06-03T16:32:04.085Z,97303.13
2018-06-03T16:34:33.846Z,97318.56
2018-06-03T16:37:03.618Z,97321.17
2018-06-03T16:39:33.341Z,97329.88
2018-06-03T16:42:03.157Z,97334.53
2018-06-03T16:44:32.918Z,97343.38
2018-06-03T16:47:02.948Z,97348.27
2018-06-03T16:49:33.789Z,97354.70
2018-06-03T16:52:03.547Z,97360.95
2018-06-03T16:54:33.399Z,97363.52
2018-06-03T16:57:03.108Z,97367.67
2018-06-03T16:59:33.347Z,97362.42
2018-06-03T17:02:03.824Z,97376.52
2018-06-03T17:04:33.999Z,97376.91
2018-06-03T17:07:03.966Z,97370.34
2018-06-03T17:12:15.600Z,97378.38
2018-06-03T17:14:45.420Z,97371.41
2018-06-03T17:17:15.265Z,97369.58
2018-06-03T17:19:45.156Z,97368.61
2018-06-03T17:22:14.864Z,97365.17
2018-06-03T17:24:44.755Z,97364.45
2018-06-03T17:27:15.145Z,97357.08
2018-06-03T17:29:44.885Z,97346.33
2018-06-03T17:32:15.011Z,97341.48
2018-06-03T17:34:44.962Z,97334.88
2018-06-03T17:37:15.245Z,97333.91
2018-06-03T17:39:45.372Z,97341.53
2018-06-03T17:42:15.399Z,97345.22
2018-06-03T17:44:45.376Z,97347.78
2018-06-03T17:47:15.222Z,97351.64
2018-06-03T17:49:45.034Z,97355.56
2018-06-03T17:52:15.064Z,97350.50
2018-06-03T17:54:45.025Z,97347.63
2018-06-03T17:57:18.493Z,97346.53
2018-06-03T17:59:49.093Z,97339.60
2018-06-03T18:02:19.160Z,97338.69
2018-06-03T18:04:49.067Z,97339.05
2018-06-03T18:07:19.679Z,97336.72
2018-06-03T18:09:49.661Z,97338.97
2018-06-03T18:12:20.115Z,97342.52
2018-06-03T18:14:50.253Z,97338.26
2018-06-03T18:17:20.405Z,97339.22
2018-06-03T18:19:50.691Z,97343.02
2018-06-03T18:22:20.993Z,97346.80
2018-06-03T18:24:51.379Z,97347.54
2018-06-03T18:27:21.259Z,97347.84
2018-06-03T18:29:51.089Z,97350.52
2018-06-03T18:32:21.137Z,97354.84
2018-06-03T18:34:51.027Z,97349.81
2018-06-03T18:37:21.160Z,97350.38
2018-06-03T18:39:58.179Z,97353.19
2018-06-03T18:42:28.336Z,97357.75
2018-06-03T18:44:58.409Z,97355.06
2018-06-03T18:47:28.399Z,97352.63
2018-06-03T18:49:58.151Z,97358.70
2018-06-03T18:55:03.867Z,97364.91
2018-06-03T18:57:33.744Z,97368.96
2018-06-03T19:00:03.498Z,97368.16
2018-06-03T19:02:33.720Z,97378.11
2018-06-03T19:05:03.581Z,97373.33
2018-06-03T19:07:33.351Z,97374.14
2018-06-03T19:10:03.175Z,97372.84
2018-06-03T19:12:36.176Z,97381.95
2018-06-03T19:15:06.021Z,97377.09
2018-06-03T19:17:35.751Z,97379.77
2018-06-03T19:20:05.674Z,97388.37
2018-06-03T19:22:36.496Z,97392.39
2018-06-03T19:25:06.790Z,97402.61
2018-06-03T19:27:36.730Z,97401.80
2018-06-03T19:30:06.643Z,97406.91
2018-06-03T19:32:36.591Z,97411.73
2018-06-03T19:35:06.526Z,97411.44
2018-06-03T19:40:12.207Z,97417.82
2018-06-03T19:42:41.957Z,97406.86
2018-06-03T19:45:11.619Z,97425.86
2018-06-03T19:47:41.582Z,97424.73
2018-06-03T19:50:11.436Z,97426.08
2018-06-03T19:52:41.772Z,97429.62
2018-06-03T19:55:11.519Z,97432.83
2018-06-03T19:57:41.255Z,97433.08
2018-06-03T20:00:11.303Z,97436.04
2018-06-03T20:02:41.071Z,97442.75
2018-06-03T20:05:11.338Z,97436.29
2018-06-03T20:07:41.024Z,97441.42
2018-06-03T20:10:10.934Z,97435.75
2018-06-03T20:12:40.924Z,97437.09
2018-06-03T20:15:12.834Z,97441.64
2018-06-03T20:17:42.718Z,97437.88
2018-06-03T20:20:12.474Z,97444.87
2018-06-03T20:22:43.073Z,97443.23
2018-06-03T20:25:13.142Z,97442.17
2018-06-03T20:27:42.959Z,97447.25
2018-06-03T20:30:12.844Z,97444.53
2018-06-03T20:32:43.154Z,97436.48
2018-06-03T20:35:12.961Z,97435.70
2018-06-03T20:37:50.433Z,97437.34
2018-06-03T20:40:23.972Z,97432.84
2018-06-03T20:42:54.069Z,97432.03
2018-06-03T20:45:24.757Z,97430.08
2018-06-03T20:47:58.616Z,97427.25
2018-06-03T20:50:28.644Z,97428.63
2018-06-03T20:52:58.746Z,97427.55
2018-06-03T20:55:29.018Z,97424.20
2018-06-03T20:57:59.164Z,97416.50
2018-06-03T21:00:29.527Z,97420.55
2018-06-03T21:02:59.511Z,97425.62
2018-06-03T21:05:30.017Z,97417.50
2018-06-03T21:07:59.806Z,97418.44
2018-06-03T21:10:30.001Z,97418.53
2018-06-03T21:13:00.302Z,97422.84
2018-06-03T21:15:30.138Z,97418.03
2018-06-03T21:18:00.010Z,97418.39
2018-06-03T21:20:30.028Z,97420.67
2018-06-03T21:23:00.004Z,97418.44
2018-06-03T21:25:30.189Z,97429.79
2018-06-03T21:28:00.693Z,97420.66
2018-06-03T21:30:30.242Z,97422.06
2018-06-03T21:33:00.173Z,97424.05
2018-06-03T21:35:30.750Z,97432.06
2018-06-03T21:38:01.607Z,97423.98
2018-06-03T21:40:31.901Z,97428.73
2018-06-03T21:43:01.564Z,97425.61
2018-06-03T21:45:31.653Z,97422.99
2018-06-03T21:48:01.666Z,97416.25
2018-06-03T21:50:31.705Z,97415.38
2018-06-03T21:53:01.843Z,97413.71
2018-06-03T21:55:31.857Z,97405.27
2018-06-03T21:58:02.022Z,97400.53
2018-06-03T22:00:32.041Z,97406.27
2018-06-03T22:03:02.374Z,97404.11
2018-06-03T22:05:32.333Z,97402.67
2018-06-03T22:08:02.482Z,97404.68
2018-06-03T22:10:33.078Z,97405.14
2018-06-03T22:13:03.064Z,97404.98
2018-06-03T22:15:33.118Z,97406.31
2018-06-03T22:18:03.482Z,97405.25
2018-06-03T22:20:33.386Z,97405.66
2018-06-03T22:23:09.731Z,97405.34
2018-06-03T22:25:39.673Z,97406.11
2018-06-03T22:28:09.758Z,97409.08
2018-06-03T22:30:40.135Z,97407.14
2018-06-03T22:33:10.025Z,97396.95
2018-06-03T22:35:39.971Z,97396.25
2018-06-03T22:38:10.216Z,97394.28
2018-06-03T22:40:39.765Z,97392.44
2018-06-03T22:43:09.694Z,97391.16
2018-06-03T22:45:39.615Z,97395.67
2018-06-03T22:48:09.723Z,97392.88
2018-06-03T22:50:40.205Z,97386.95
2018-06-03T22:53:10.242Z,97388.47
2018-06-03T22:55:40.198Z,97385.62
2018-06-03T22:58:10.374Z,97382.66
2018-06-03T23:00:40.583Z,97381.88
2018-06-03T23:03:14.896Z,97382.32
2018-06-03T23:05:44.906Z,97379.84
2018-06-03T23:08:15.087Z,97379.56
2018-06-03T23:10:45.146Z,97377.95
2018-06-03T23:15:58.854Z,97371.86
2018-06-03T23:18:28.802Z,97374.03
2018-06-03T23:20:58.968Z,97379.72
2018-06-03T23:23:29.044Z,97375.88
2018-06-03T23:26:02.273Z,97373.01
2018-06-03T23:28:32.269Z,97363.55
2018-06-03T23:33:38.141Z,97352.99
2018-06-03T23:36:08.124Z,97352.21
2018-06-03T23:38:38.102Z,97349.61
2018-06-03T23:41:08.240Z,97353.82
2018-06-03T23:43:38.247Z,97349.94
2018-06-03T23:46:08.171Z,97352.12
2018-06-03T23:48:38.135Z,97355.78
2018-06-03T23:51:07.739Z,97354.51
2018-06-03T23:53:37.665Z,97352.21
2018-06-03T23:56:07.604Z,97347.94
2018-06-03T23:58:37.794Z,97347.11
